Terminal Aerodrome Forecast
Issued by NWS

Home | Current Version | Previous Version | Text Only | Print | Product List | Glossary On
Versions: 1 2 3 4 5 6 7 8 9 10 11 12 13
000
FTUS44 KLZK 012300
TAFHOT
TAF
KHOT 012330Z 0200/0224 17006KT P6SM SCT250
     FM020800 18006KT P6SM BKN020
     FM021200 20006KT 5SM BR OVC012
     FM021500 22007KT P6SM BKN020 OVC040
     FM021900 20007KT P6SM SCT025 BKN040
      AMD NOT SKED=

USA.gov is the U.S. government's official web portal to all federal, state and local government web resources and services.